sensor_id;sensor_type;location;lat;lon;timestamp;temperature;humidity
33067;DHT22;19428;49.024;8.366;2023-04-24T00:01:41;12.20;99.90
33067;DHT22;19428;49.024;8.366;2023-04-24T00:04:08;12.20;99.90
33067;DHT22;19428;49.024;8.366;2023-04-24T00:06:36;12.10;99.90
33067;DHT22;19428;49.024;8.366;2023-04-24T00:09:03;12.20;99.90
33067;DHT22;19428;49.024;8.366;2023-04-24T00:11:29;12.20;99.90
33067;DHT22;19428;49.024;8.366;2023-04-24T00:13:56;12.20;99.90
33067;DHT22;19428;49.024;8.366;2023-04-24T00:16:22;12.30;99.90
33067;DHT22;19428;49.024;8.366;2023-04-24T00:18:48;12.30;99.90
33067;DHT22;19428;49.024;8.366;2023-04-24T00:21:14;12.30;99.90
33067;DHT22;19428;49.024;8.366;2023-04-24T00:23:41;12.30;99.90
33067;DHT22;19428;49.024;8.366;2023-04-24T00:26:07;12.30;99.90
33067;DHT22;19428;49.024;8.366;2023-04-24T00:28:32;12.40;99.90
33067;DHT22;19428;49.024;8.366;2023-04-24T00:30:58;12.30;99.90
33067;DHT22;19428;49.024;8.366;2023-04-24T00:33:23;12.30;99.90
33067;DHT22;19428;49.024;8.366;2023-04-24T00:35:49;12.30;99.90
33067;DHT22;19428;49.024;8.366;2023-04-24T00:38:14;12.30;99.90
33067;DHT22;19428;49.024;8.366;2023-04-24T00:40:40;12.30;99.90
33067;DHT22;19428;49.024;8.366;2023-04-24T00:43:06;12.30;99.90
33067;DHT22;19428;49.024;8.366;2023-04-24T00:45:31;12.40;99.90
33067;DHT22;19428;49.024;8.366;2023-04-24T00:47:57;12.40;99.90
33067;DHT22;19428;49.024;8.366;2023-04-24T00:50:24;12.40;99.90
33067;DHT22;19428;49.024;8.366;2023-04-24T00:52:49;12.40;99.90
33067;DHT22;19428;49.024;8.366;2023-04-24T00:55:16;12.40;99.90
33067;DHT22;19428;49.024;8.366;2023-04-24T00:57:42;12.40;99.90
33067;DHT22;19428;49.024;8.366;2023-04-24T01:00:09;12.30;99.90
33067;DHT22;19428;49.024;8.366;2023-04-24T01:02:37;12.30;99.90
33067;DHT22;19428;49.024;8.366;2023-04-24T01:05:06;12.30;99.90
33067;DHT22;19428;49.024;8.366;2023-04-24T01:07:32;12.30;99.90
33067;DHT22;19428;49.024;8.366;2023-04-24T01:09:58;12.20;99.90
33067;DHT22;19428;49.024;8.366;2023-04-24T01:12:24;12.10;99.90
33067;DHT22;19428;49.024;8.366;2023-04-24T01:14:50;12.10;99.90
33067;DHT22;19428;49.024;8.366;2023-04-24T01:17:16;12.10;99.90
33067;DHT22;19428;49.024;8.366;2023-04-24T01:19:42;12.10;99.90
33067;DHT22;19428;49.024;8.366;2023-04-24T01:22:15;12.10;99.90
33067;DHT22;19428;49.024;8.366;2023-04-24T01:24:42;12.20;99.90
33067;DHT22;19428;49.024;8.366;2023-04-24T01:27:09;12.10;99.90
33067;DHT22;19428;49.024;8.366;2023-04-24T01:29:35;12.20;99.90
33067;DHT22;19428;49.024;8.366;2023-04-24T01:32:02;12.20;99.90
33067;DHT22;19428;49.024;8.366;2023-04-24T01:34:28;12.30;99.90
33067;DHT22;19428;49.024;8.366;2023-04-24T01:36:53;12.30;99.90
33067;DHT22;19428;49.024;8.366;2023-04-24T01:39:19;12.40;99.90
33067;DHT22;19428;49.024;8.366;2023-04-24T01:41:46;12.30;99.90
33067;DHT22;19428;49.024;8.366;2023-04-24T01:44:12;12.40;99.90
33067;DHT22;19428;49.024;8.366;2023-04-24T01:46:38;12.30;99.90
33067;DHT22;19428;49.024;8.366;2023-04-24T01:49:03;12.30;99.90
33067;DHT22;19428;49.024;8.366;2023-04-24T01:51:29;12.20;99.90
33067;DHT22;19428;49.024;8.366;2023-04-24T01:53:55;12.10;99.90
33067;DHT22;19428;49.024;8.366;2023-04-24T01:56:21;12.10;99.90
33067;DHT22;19428;49.024;8.366;2023-04-24T01:58:48;12.10;99.90
33067;DHT22;19428;49.024;8.366;2023-04-24T02:01:18;12.00;99.90
33067;DHT22;19428;49.024;8.366;2023-04-24T02:03:44;11.90;99.90
33067;DHT22;19428;49.024;8.366;2023-04-24T02:06:09;11.90;99.90
33067;DHT22;19428;49.024;8.366;2023-04-24T02:08:35;11.80;99.90
33067;DHT22;19428;49.024;8.366;2023-04-24T02:11:01;11.80;99.90
33067;DHT22;19428;49.024;8.366;2023-04-24T02:13:27;11.80;99.90
33067;DHT22;19428;49.024;8.366;2023-04-24T02:15:53;11.80;99.90
33067;DHT22;19428;49.024;8.366;2023-04-24T02:18:19;11.90;99.90
33067;DHT22;19428;49.024;8.366;2023-04-24T02:20:45;11.90;99.90
33067;DHT22;19428;49.024;8.366;2023-04-24T02:23:11;11.90;99.90
33067;DHT22;19428;49.024;8.366;2023-04-24T02:25:36;11.90;99.90
33067;DHT22;19428;49.024;8.366;2023-04-24T02:28:02;11.90;99.90
33067;DHT22;19428;49.024;8.366;2023-04-24T02:30:28;12.00;99.90
33067;DHT22;19428;49.024;8.366;2023-04-24T02:32:53;12.00;99.90
33067;DHT22;19428;49.024;8.366;2023-04-24T02:35:19;12.00;99.90
33067;DHT22;19428;49.024;8.366;2023-04-24T02:37:45;12.10;99.90
33067;DHT22;19428;49.024;8.366;2023-04-24T02:40:11;12.00;99.90
33067;DHT22;19428;49.024;8.366;2023-04-24T02:42:36;12.10;99.90
33067;DHT22;19428;49.024;8.366;2023-04-24T02:45:02;12.00;99.90
33067;DHT22;19428;49.024;8.366;2023-04-24T02:47:28;12.00;99.90
33067;DHT22;19428;49.024;8.366;2023-04-24T02:49:53;12.00;99.90
33067;DHT22;19428;49.024;8.366;2023-04-24T02:52:19;12.00;99.90
33067;DHT22;19428;49.024;8.366;2023-04-24T02:54:44;12.00;99.90
33067;DHT22;19428;49.024;8.366;2023-04-24T02:57:10;11.90;99.90
33067;DHT22;19428;49.024;8.366;2023-04-24T02:59:36;11.80;99.90
33067;DHT22;19428;49.024;8.366;2023-04-24T03:02:01;11.70;99.90
33067;DHT22;19428;49.024;8.366;2023-04-24T03:04:27;11.60;99.90
33067;DHT22;19428;49.024;8.366;2023-04-24T03:06:52;11.50;99.90
33067;DHT22;19428;49.024;8.366;2023-04-24T03:09:20;11.50;99.90
33067;DHT22;19428;49.024;8.366;2023-04-24T03:11:46;11.40;99.90
33067;DHT22;19428;49.024;8.366;2023-04-24T03:14:11;11.40;99.90
33067;DHT22;19428;49.024;8.366;2023-04-24T03:16:37;11.30;99.90
33067;DHT22;19428;49.024;8.366;2023-04-24T03:19:03;11.30;99.90
33067;DHT22;19428;49.024;8.366;2023-04-24T03:21:28;11.20;99.90
33067;DHT22;19428;49.024;8.366;2023-04-24T03:23:54;11.20;99.90
33067;DHT22;19428;49.024;8.366;2023-04-24T03:26:20;11.20;99.90
33067;DHT22;19428;49.024;8.366;2023-04-24T03:28:45;11.20;99.90
33067;DHT22;19428;49.024;8.366;2023-04-24T03:31:11;11.20;99.90
33067;DHT22;19428;49.024;8.366;2023-04-24T03:33:36;11.20;99.90
33067;DHT22;19428;49.024;8.366;2023-04-24T03:36:02;11.10;99.90
33067;DHT22;19428;49.024;8.366;2023-04-24T03:38:28;11.10;99.90
33067;DHT22;19428;49.024;8.366;2023-04-24T03:40:53;11.00;99.90
33067;DHT22;19428;49.024;8.366;2023-04-24T03:43:19;11.10;99.90
33067;DHT22;19428;49.024;8.366;2023-04-24T03:45:45;11.00;99.90
33067;DHT22;19428;49.024;8.366;2023-04-24T03:48:10;11.00;99.90
33067;DHT22;19428;49.024;8.366;2023-04-24T03:50:36;10.90;99.90
33067;DHT22;19428;49.024;8.366;2023-04-24T03:53:01;11.00;99.90
33067;DHT22;19428;49.024;8.366;2023-04-24T03:55:27;10.90;99.90
33067;DHT22;19428;49.024;8.366;2023-04-24T03:57:52;10.90;99.90
33067;DHT22;19428;49.024;8.366;2023-04-24T04:00:18;10.90;99.90
33067;DHT22;19428;49.024;8.366;2023-04-24T04:02:44;10.80;99.90
33067;DHT22;19428;49.024;8.366;2023-04-24T04:05:10;10.80;99.90
33067;DHT22;19428;49.024;8.366;2023-04-24T04:07:36;10.60;99.90
33067;DHT22;19428;49.024;8.366;2023-04-24T04:10:01;10.60;99.90
33067;DHT22;19428;49.024;8.366;2023-04-24T04:12:27;10.50;99.90
33067;DHT22;19428;49.024;8.366;2023-04-24T04:14:53;10.50;99.90
33067;DHT22;19428;49.024;8.366;2023-04-24T04:17:18;10.40;99.90
33067;DHT22;19428;49.024;8.366;2023-04-24T04:19:44;10.40;99.90
33067;DHT22;19428;49.024;8.366;2023-04-24T04:22:10;10.30;99.90
33067;DHT22;19428;49.024;8.366;2023-04-24T04:24:35;10.30;99.90
33067;DHT22;19428;49.024;8.366;2023-04-24T04:27:04;10.30;99.90
33067;DHT22;19428;49.024;8.366;2023-04-24T04:29:30;10.20;99.90
33067;DHT22;19428;49.024;8.366;2023-04-24T04:31:57;10.20;99.90
33067;DHT22;19428;49.024;8.366;2023-04-24T04:34:23;10.10;99.90
33067;DHT22;19428;49.024;8.366;2023-04-24T04:36:48;10.10;99.90
33067;DHT22;19428;49.024;8.366;2023-04-24T04:39:14;10.10;99.90
33067;DHT22;19428;49.024;8.366;2023-04-24T04:41:40;10.10;99.90
33067;DHT22;19428;49.024;8.366;2023-04-24T04:44:07;10.10;99.90
33067;DHT22;19428;49.024;8.366;2023-04-24T04:46:34;10.10;99.90
33067;DHT22;19428;49.024;8.366;2023-04-24T04:49:01;10.10;99.90
33067;DHT22;19428;49.024;8.366;2023-04-24T04:51:27;10.10;99.90
33067;DHT22;19428;49.024;8.366;2023-04-24T04:53:53;10.10;99.90
33067;DHT22;19428;49.024;8.366;2023-04-24T04:56:18;10.10;99.90
33067;DHT22;19428;49.024;8.366;2023-04-24T04:58:44;10.10;99.90
33067;DHT22;19428;49.024;8.366;2023-04-24T05:01:10;10.10;99.90
33067;DHT22;19428;49.024;8.366;2023-04-24T05:03:36;10.00;99.90
33067;DHT22;19428;49.024;8.366;2023-04-24T05:06:02;10.10;99.90
33067;DHT22;19428;49.024;8.366;2023-04-24T05:08:27;10.20;99.90
33067;DHT22;19428;49.024;8.366;2023-04-24T05:10:54;10.20;99.90
33067;DHT22;19428;49.024;8.366;2023-04-24T05:13:20;10.30;99.90
33067;DHT22;19428;49.024;8.366;2023-04-24T05:15:45;10.30;99.90
33067;DHT22;19428;49.024;8.366;2023-04-24T05:18:11;10.40;99.90
33067;DHT22;19428;49.024;8.366;2023-04-24T05:20:37;10.50;99.90
33067;DHT22;19428;49.024;8.366;2023-04-24T05:23:02;10.50;99.90
33067;DHT22;19428;49.024;8.366;2023-04-24T05:25:28;10.60;99.90
33067;DHT22;19428;49.024;8.366;2023-04-24T05:27:54;10.60;99.90
33067;DHT22;19428;49.024;8.366;2023-04-24T05:30:19;10.70;99.90
33067;DHT22;19428;49.024;8.366;2023-04-24T05:32:45;10.70;99.90
33067;DHT22;19428;49.024;8.366;2023-04-24T05:35:11;10.60;99.90
33067;DHT22;19428;49.024;8.366;2023-04-24T05:37:37;10.60;99.90
33067;DHT22;19428;49.024;8.366;2023-04-24T05:40:03;10.60;99.90
33067;DHT22;19428;49.024;8.366;2023-04-24T05:42:31;10.70;99.90
33067;DHT22;19428;49.024;8.366;2023-04-24T05:44:56;10.70;99.90
33067;DHT22;19428;49.024;8.366;2023-04-24T05:47:22;10.70;99.90
33067;DHT22;19428;49.024;8.366;2023-04-24T05:49:48;10.70;99.90
33067;DHT22;19428;49.024;8.366;2023-04-24T05:52:13;10.80;99.90
33067;DHT22;19428;49.024;8.366;2023-04-24T05:54:39;10.80;99.90
33067;DHT22;19428;49.024;8.366;2023-04-24T05:57:04;10.90;99.90
33067;DHT22;19428;49.024;8.366;2023-04-24T05:59:36;10.90;99.90
33067;DHT22;19428;49.024;8.366;2023-04-24T06:02:03;10.90;99.90
33067;DHT22;19428;49.024;8.366;2023-04-24T06:04:28;10.90;99.90
33067;DHT22;19428;49.024;8.366;2023-04-24T06:06:54;10.90;99.90
33067;DHT22;19428;49.024;8.366;2023-04-24T06:09:25;11.00;99.90
33067;DHT22;19428;49.024;8.366;2023-04-24T06:11:51;11.00;99.90
33067;DHT22;19428;49.024;8.366;2023-04-24T06:14:18;11.00;99.90
33067;DHT22;19428;49.024;8.366;2023-04-24T06:16:44;11.00;99.90
33067;DHT22;19428;49.024;8.366;2023-04-24T06:19:10;11.00;99.90
33067;DHT22;19428;49.024;8.366;2023-04-24T06:21:35;11.00;99.90
33067;DHT22;19428;49.024;8.366;2023-04-24T06:24:01;11.00;99.90
33067;DHT22;19428;49.024;8.366;2023-04-24T06:26:27;11.00;99.90
33067;DHT22;19428;49.024;8.366;2023-04-24T06:28:53;11.00;99.90
33067;DHT22;19428;49.024;8.366;2023-04-24T06:31:21;11.00;99.90
33067;DHT22;19428;49.024;8.366;2023-04-24T06:33:48;11.00;99.90
33067;DHT22;19428;49.024;8.366;2023-04-24T06:36:14;11.10;99.90
33067;DHT22;19428;49.024;8.366;2023-04-24T06:38:41;11.10;99.90
33067;DHT22;19428;49.024;8.366;2023-04-24T06:41:06;11.10;99.90
33067;DHT22;19428;49.024;8.366;2023-04-24T06:43:32;11.10;99.90
33067;DHT22;19428;49.024;8.366;2023-04-24T06:45:59;11.20;99.90
33067;DHT22;19428;49.024;8.366;2023-04-24T06:48:25;11.20;99.90
33067;DHT22;19428;49.024;8.366;2023-04-24T06:50:51;11.40;99.90
33067;DHT22;19428;49.024;8.366;2023-04-24T06:53:17;11.40;99.90
33067;DHT22;19428;49.024;8.366;2023-04-24T06:55:43;11.30;99.90
33067;DHT22;19428;49.024;8.366;2023-04-24T06:58:10;11.30;99.90
33067;DHT22;19428;49.024;8.366;2023-04-24T07:00:36;11.30;99.90
33067;DHT22;19428;49.024;8.366;2023-04-24T07:03:02;11.20;99.90
33067;DHT22;19428;49.024;8.366;2023-04-24T07:05:28;11.30;99.90
33067;DHT22;19428;49.024;8.366;2023-04-24T07:07:53;11.40;99.90
33067;DHT22;19428;49.024;8.366;2023-04-24T07:10:19;11.50;99.90
33067;DHT22;19428;49.024;8.366;2023-04-24T07:12:45;11.60;99.90
33067;DHT22;19428;49.024;8.366;2023-04-24T07:15:12;11.50;99.90
33067;DHT22;19428;49.024;8.366;2023-04-24T07:17:37;11.40;99.90
33067;DHT22;19428;49.024;8.366;2023-04-24T07:20:09;11.50;99.90
33067;DHT22;19428;49.024;8.366;2023-04-24T07:22:36;11.40;99.90
33067;DHT22;19428;49.024;8.366;2023-04-24T07:25:01;11.30;99.90
33067;DHT22;19428;49.024;8.366;2023-04-24T07:27:28;11.40;99.90
33067;DHT22;19428;49.024;8.366;2023-04-24T07:29:53;11.50;99.30
33067;DHT22;19428;49.024;8.366;2023-04-24T07:32:19;11.70;98.00
33067;DHT22;19428;49.024;8.366;2023-04-24T07:34:45;11.70;97.30
33067;DHT22;19428;49.024;8.366;2023-04-24T07:37:11;11.80;96.30
33067;DHT22;19428;49.024;8.366;2023-04-24T07:39:36;11.80;93.80
33067;DHT22;19428;49.024;8.366;2023-04-24T07:42:02;12.10;94.30
33067;DHT22;19428;49.024;8.366;2023-04-24T07:44:28;12.20;92.40
33067;DHT22;19428;49.024;8.366;2023-04-24T07:46:54;12.30;92.40
33067;DHT22;19428;49.024;8.366;2023-04-24T07:49:21;12.00;89.20
33067;DHT22;19428;49.024;8.366;2023-04-24T07:51:46;11.80;87.80
33067;DHT22;19428;49.024;8.366;2023-04-24T07:54:12;11.60;89.10
33067;DHT22;19428;49.024;8.366;2023-04-24T07:56:37;11.30;90.00
33067;DHT22;19428;49.024;8.366;2023-04-24T07:59:07;11.10;92.60
33067;DHT22;19428;49.024;8.366;2023-04-24T08:01:32;10.70;96.00
33067;DHT22;19428;49.024;8.366;2023-04-24T08:03:58;10.50;99.90
33067;DHT22;19428;49.024;8.366;2023-04-24T08:06:24;10.40;99.90
33067;DHT22;19428;49.024;8.366;2023-04-24T08:08:51;10.40;99.90
33067;DHT22;19428;49.024;8.366;2023-04-24T08:11:16;10.40;99.90
33067;DHT22;19428;49.024;8.366;2023-04-24T08:13:42;10.50;99.30
33067;DHT22;19428;49.024;8.366;2023-04-24T08:16:08;10.60;98.70
33067;DHT22;19428;49.024;8.366;2023-04-24T08:18:33;10.70;98.20
33067;DHT22;19428;49.024;8.366;2023-04-24T08:21:01;10.90;96.40
33067;DHT22;19428;49.024;8.366;2023-04-24T08:23:27;11.30;94.40
33067;DHT22;19428;49.024;8.366;2023-04-24T08:25:52;11.20;93.30
33067;DHT22;19428;49.024;8.366;2023-04-24T08:28:18;11.20;94.50
33067;DHT22;19428;49.024;8.366;2023-04-24T08:30:46;11.20;94.40
33067;DHT22;19428;49.024;8.366;2023-04-24T08:33:12;11.00;95.60
33067;DHT22;19428;49.024;8.366;2023-04-24T08:35:38;11.10;96.40
33067;DHT22;19428;49.024;8.366;2023-04-24T08:38:04;11.20;94.90
33067;DHT22;19428;49.024;8.366;2023-04-24T08:40:32;11.00;94.90
33067;DHT22;19428;49.024;8.366;2023-04-24T08:42:59;10.90;95.30
33067;DHT22;19428;49.024;8.366;2023-04-24T08:45:25;11.00;96.80
33067;DHT22;19428;49.024;8.366;2023-04-24T08:47:52;11.30;96.00
33067;DHT22;19428;49.024;8.366;2023-04-24T08:50:21;11.50;95.40
33067;DHT22;19428;49.024;8.366;2023-04-24T08:52:49;11.20;96.20
33067;DHT22;19428;49.024;8.366;2023-04-24T08:55:15;11.70;94.50
33067;DHT22;19428;49.024;8.366;2023-04-24T08:57:45;11.50;93.50
33067;DHT22;19428;49.024;8.366;2023-04-24T09:00:11;11.70;92.40
33067;DHT22;19428;49.024;8.366;2023-04-24T09:02:42;11.60;92.70
33067;DHT22;19428;49.024;8.366;2023-04-24T09:05:09;11.60;92.40
33067;DHT22;19428;49.024;8.366;2023-04-24T09:07:35;11.60;92.20
33067;DHT22;19428;49.024;8.366;2023-04-24T09:10:05;11.80;93.10
33067;DHT22;19428;49.024;8.366;2023-04-24T09:12:32;12.00;92.10
33067;DHT22;19428;49.024;8.366;2023-04-24T09:14:58;11.80;91.40
33067;DHT22;19428;49.024;8.366;2023-04-24T09:17:25;11.70;90.30
33067;DHT22;19428;49.024;8.366;2023-04-24T09:19:52;11.50;86.00
33067;DHT22;19428;49.024;8.366;2023-04-24T09:22:18;11.50;86.20
33067;DHT22;19428;49.024;8.366;2023-04-24T09:24:45;11.40;86.30
33067;DHT22;19428;49.024;8.366;2023-04-24T09:27:11;11.50;86.00
33067;DHT22;19428;49.024;8.366;2023-04-24T09:29:55;11.60;84.80
33067;DHT22;19428;49.024;8.366;2023-04-24T09:32:22;11.50;80.60
33067;DHT22;19428;49.024;8.366;2023-04-24T09:35:04;11.60;80.20
33067;DHT22;19428;49.024;8.366;2023-04-24T09:37:30;11.60;79.50
33067;DHT22;19428;49.024;8.366;2023-04-24T09:40:13;11.60;79.50
33067;DHT22;19428;49.024;8.366;2023-04-24T09:42:39;11.60;78.50
33067;DHT22;19428;49.024;8.366;2023-04-24T09:45:14;11.60;78.10
33067;DHT22;19428;49.024;8.366;2023-04-24T09:47:40;11.80;79.20
33067;DHT22;19428;49.024;8.366;2023-04-24T09:50:16;11.80;77.30
33067;DHT22;19428;49.024;8.366;2023-04-24T09:52:43;11.70;75.00
33067;DHT22;19428;49.024;8.366;2023-04-24T09:55:17;11.80;73.70
33067;DHT22;19428;49.024;8.366;2023-04-24T10:00:31;12.10;74.70
33067;DHT22;19428;49.024;8.366;2023-04-24T10:03:04;12.30;74.40
33067;DHT22;19428;49.024;8.366;2023-04-24T10:05:33;12.20;76.00
33067;DHT22;19428;49.024;8.366;2023-04-24T10:08:06;12.70;74.60
33067;DHT22;19428;49.024;8.366;2023-04-24T10:10:33;12.80;73.90
33067;DHT22;19428;49.024;8.366;2023-04-24T10:13:00;12.80;70.70
33067;DHT22;19428;49.024;8.366;2023-04-24T10:15:26;12.30;71.50
33067;DHT22;19428;49.024;8.366;2023-04-24T10:17:52;12.20;72.50
33067;DHT22;19428;49.024;8.366;2023-04-24T10:20:23;12.20;73.20
33067;DHT22;19428;49.024;8.366;2023-04-24T10:22:51;12.30;74.10
33067;DHT22;19428;49.024;8.366;2023-04-24T10:25:28;12.10;72.00
33067;DHT22;19428;49.024;8.366;2023-04-24T10:27:54;12.00;73.10
33067;DHT22;19428;49.024;8.366;2023-04-24T10:30:26;12.00;73.60
33067;DHT22;19428;49.024;8.366;2023-04-24T10:32:52;11.80;73.00
33067;DHT22;19428;49.024;8.366;2023-04-24T10:35:18;11.70;75.20
33067;DHT22;19428;49.024;8.366;2023-04-24T10:37:57;11.60;75.30
33067;DHT22;19428;49.024;8.366;2023-04-24T10:40:34;11.70;75.60
33067;DHT22;19428;49.024;8.366;2023-04-24T10:43:05;11.70;76.30
33067;DHT22;19428;49.024;8.366;2023-04-24T10:45:35;11.80;75.10
33067;DHT22;19428;49.024;8.366;2023-04-24T10:48:05;11.80;75.90
33067;DHT22;19428;49.024;8.366;2023-04-24T10:50:52;11.90;78.10
33067;DHT22;19428;49.024;8.366;2023-04-24T10:53:23;12.10;75.40
33067;DHT22;19428;49.024;8.366;2023-04-24T10:56:08;12.30;74.20
33067;DHT22;19428;49.024;8.366;2023-04-24T10:58:43;12.10;74.00
33067;DHT22;19428;49.024;8.366;2023-04-24T11:01:30;12.00;75.00
33067;DHT22;19428;49.024;8.366;2023-04-24T11:04:01;12.00;76.20
33067;DHT22;19428;49.024;8.366;2023-04-24T11:06:32;12.10;77.00
33067;DHT22;19428;49.024;8.366;2023-04-24T11:11:29;11.70;86.90
33067;DHT22;19428;49.024;8.366;2023-04-24T11:21:32;11.40;98.90
33067;DHT22;19428;49.024;8.366;2023-04-24T11:23:58;11.40;97.20
33067;DHT22;19428;49.024;8.366;2023-04-24T11:26:24;11.20;96.20
33067;DHT22;19428;49.024;8.366;2023-04-24T11:29:06;11.10;99.80
33067;DHT22;19428;49.024;8.366;2023-04-24T11:31:40;11.30;99.90
33067;DHT22;19428;49.024;8.366;2023-04-24T11:34:14;11.40;98.00
33067;DHT22;19428;49.024;8.366;2023-04-24T11:36:44;11.80;96.20
33067;DHT22;19428;49.024;8.366;2023-04-24T11:39:09;12.00;95.20
33067;DHT22;19428;49.024;8.366;2023-04-24T11:41:36;12.20;95.90
33067;DHT22;19428;49.024;8.366;2023-04-24T11:44:03;11.80;93.20
33067;DHT22;19428;49.024;8.366;2023-04-24T11:46:29;11.80;93.60
33067;DHT22;19428;49.024;8.366;2023-04-24T11:48:56;12.00;92.70
33067;DHT22;19428;49.024;8.366;2023-04-24T11:51:23;12.00;91.80
33067;DHT22;19428;49.024;8.366;2023-04-24T11:53:50;11.90;91.20
33067;DHT22;19428;49.024;8.366;2023-04-24T11:56:23;12.50;90.20
33067;DHT22;19428;49.024;8.366;2023-04-24T11:58:52;12.70;89.90
33067;DHT22;19428;49.024;8.366;2023-04-24T12:01:18;12.50;87.80
33067;DHT22;19428;49.024;8.366;2023-04-24T12:03:50;12.60;90.00
33067;DHT22;19428;49.024;8.366;2023-04-24T12:06:20;13.00;85.80
33067;DHT22;19428;49.024;8.366;2023-04-24T12:08:46;13.10;86.20
33067;DHT22;19428;49.024;8.366;2023-04-24T12:11:15;13.10;85.00
33067;DHT22;19428;49.024;8.366;2023-04-24T12:13:40;13.30;84.20
33067;DHT22;19428;49.024;8.366;2023-04-24T12:16:06;12.90;87.20
33067;DHT22;19428;49.024;8.366;2023-04-24T12:18:31;12.70;89.70
33067;DHT22;19428;49.024;8.366;2023-04-24T12:21:15;12.60;87.20
33067;DHT22;19428;49.024;8.366;2023-04-24T12:23:45;12.40;85.60
33067;DHT22;19428;49.024;8.366;2023-04-24T12:26:12;13.00;83.70
33067;DHT22;19428;49.024;8.366;2023-04-24T12:28:38;12.90;79.70
33067;DHT22;19428;49.024;8.366;2023-04-24T12:31:04;13.00;80.40
33067;DHT22;19428;49.024;8.366;2023-04-24T12:33:35;13.10;75.30
33067;DHT22;19428;49.024;8.366;2023-04-24T12:36:01;13.00;76.90
33067;DHT22;19428;49.024;8.366;2023-04-24T12:38:28;12.50;77.70
33067;DHT22;19428;49.024;8.366;2023-04-24T12:41:06;12.80;77.20
33067;DHT22;19428;49.024;8.366;2023-04-24T12:43:32;12.80;76.10
33067;DHT22;19428;49.024;8.366;2023-04-24T12:45:58;13.20;76.80
33067;DHT22;19428;49.024;8.366;2023-04-24T12:48:25;13.20;74.70
33067;DHT22;19428;49.024;8.366;2023-04-24T12:50:50;13.30;72.90
33067;DHT22;19428;49.024;8.366;2023-04-24T12:53:16;13.30;71.50
33067;DHT22;19428;49.024;8.366;2023-04-24T12:55:42;13.40;70.80
33067;DHT22;19428;49.024;8.366;2023-04-24T12:58:07;13.10;69.50
33067;DHT22;19428;49.024;8.366;2023-04-24T13:00:33;13.00;69.20
33067;DHT22;19428;49.024;8.366;2023-04-24T13:02:59;13.10;66.60
33067;DHT22;19428;49.024;8.366;2023-04-24T13:05:24;13.20;67.40
33067;DHT22;19428;49.024;8.366;2023-04-24T13:07:50;13.20;69.40
33067;DHT22;19428;49.024;8.366;2023-04-24T13:10:16;13.00;71.30
33067;DHT22;19428;49.024;8.366;2023-04-24T13:12:41;13.00;68.00
33067;DHT22;19428;49.024;8.366;2023-04-24T13:15:10;13.50;69.60
33067;DHT22;19428;49.024;8.366;2023-04-24T13:17:36;13.80;70.00
33067;DHT22;19428;49.024;8.366;2023-04-24T13:20:02;14.10;67.60
33067;DHT22;19428;49.024;8.366;2023-04-24T13:22:28;13.80;63.90
33067;DHT22;19428;49.024;8.366;2023-04-24T13:24:53;13.70;63.80
33067;DHT22;19428;49.024;8.366;2023-04-24T13:27:20;13.30;65.00
33067;DHT22;19428;49.024;8.366;2023-04-24T13:29:45;13.10;65.00
33067;DHT22;19428;49.024;8.366;2023-04-24T13:32:11;13.10;65.60
33067;DHT22;19428;49.024;8.366;2023-04-24T13:34:37;13.40;64.20
33067;DHT22;19428;49.024;8.366;2023-04-24T13:37:03;13.60;61.30
33067;DHT22;19428;49.024;8.366;2023-04-24T13:39:29;13.60;62.50
33067;DHT22;19428;49.024;8.366;2023-04-24T13:41:55;13.70;59.40
33067;DHT22;19428;49.024;8.366;2023-04-24T13:44:21;13.40;57.80
33067;DHT22;19428;49.024;8.366;2023-04-24T13:46:49;13.20;57.20
33067;DHT22;19428;49.024;8.366;2023-04-24T13:49:15;13.20;56.10
33067;DHT22;19428;49.024;8.366;2023-04-24T13:51:42;13.20;55.50
33067;DHT22;19428;49.024;8.366;2023-04-24T13:54:08;13.10;56.30
33067;DHT22;19428;49.024;8.366;2023-04-24T13:56:34;13.10;57.80
33067;DHT22;19428;49.024;8.366;2023-04-24T13:59:00;13.30;56.40
33067;DHT22;19428;49.024;8.366;2023-04-24T14:01:26;13.10;56.30
33067;DHT22;19428;49.024;8.366;2023-04-24T14:03:52;13.20;57.80
33067;DHT22;19428;49.024;8.366;2023-04-24T14:06:19;13.20;57.60
33067;DHT22;19428;49.024;8.366;2023-04-24T14:08:45;13.50;58.80
33067;DHT22;19428;49.024;8.366;2023-04-24T14:11:10;13.50;58.20
33067;DHT22;19428;49.024;8.366;2023-04-24T14:13:37;13.40;59.10
33067;DHT22;19428;49.024;8.366;2023-04-24T14:16:06;13.50;60.60
33067;DHT22;19428;49.024;8.366;2023-04-24T14:18:31;13.50;62.20
33067;DHT22;19428;49.024;8.366;2023-04-24T14:20:57;12.90;75.10
33067;DHT22;19428;49.024;8.366;2023-04-24T14:23:23;13.40;88.20
33067;DHT22;19428;49.024;8.366;2023-04-24T14:25:48;13.60;88.00
33067;DHT22;19428;49.024;8.366;2023-04-24T14:28:17;13.70;82.50
33067;DHT22;19428;49.024;8.366;2023-04-24T14:30:43;13.60;77.50
33067;DHT22;19428;49.024;8.366;2023-04-24T14:33:09;13.70;78.40
33067;DHT22;19428;49.024;8.366;2023-04-24T14:35:36;13.70;84.80
33067;DHT22;19428;49.024;8.366;2023-04-24T14:38:01;13.60;76.30
33067;DHT22;19428;49.024;8.366;2023-04-24T14:40:27;13.10;77.20
33067;DHT22;19428;49.024;8.366;2023-04-24T14:42:53;13.10;76.30
33067;DHT22;19428;49.024;8.366;2023-04-24T14:45:18;13.30;79.20
33067;DHT22;19428;49.024;8.366;2023-04-24T14:47:45;13.50;76.70
33067;DHT22;19428;49.024;8.366;2023-04-24T14:50:10;13.50;76.30
33067;DHT22;19428;49.024;8.366;2023-04-24T14:52:38;14.00;71.20
33067;DHT22;19428;49.024;8.366;2023-04-24T14:55:04;14.20;66.60
33067;DHT22;19428;49.024;8.366;2023-04-24T14:57:30;13.70;68.90
33067;DHT22;19428;49.024;8.366;2023-04-24T14:59:56;13.70;68.10
33067;DHT22;19428;49.024;8.366;2023-04-24T15:02:21;13.70;68.30
33067;DHT22;19428;49.024;8.366;2023-04-24T15:04:47;13.50;68.20
33067;DHT22;19428;49.024;8.366;2023-04-24T15:07:12;13.90;67.10
33067;DHT22;19428;49.024;8.366;2023-04-24T15:09:38;13.80;68.30
33067;DHT22;19428;49.024;8.366;2023-04-24T15:12:04;13.50;66.30
33067;DHT22;19428;49.024;8.366;2023-04-24T15:14:29;13.30;65.80
33067;DHT22;19428;49.024;8.366;2023-04-24T15:16:55;13.20;65.30
33067;DHT22;19428;49.024;8.366;2023-04-24T15:19:21;12.90;67.10
33067;DHT22;19428;49.024;8.366;2023-04-24T15:21:46;12.90;66.70
33067;DHT22;19428;49.024;8.366;2023-04-24T15:24:12;12.90;68.10
33067;DHT22;19428;49.024;8.366;2023-04-24T15:26:37;13.00;67.60
33067;DHT22;19428;49.024;8.366;2023-04-24T15:29:03;13.10;69.80
33067;DHT22;19428;49.024;8.366;2023-04-24T15:31:29;13.20;68.50
33067;DHT22;19428;49.024;8.366;2023-04-24T15:33:54;13.00;69.00
33067;DHT22;19428;49.024;8.366;2023-04-24T15:36:20;13.10;67.80
33067;DHT22;19428;49.024;8.366;2023-04-24T15:38:46;12.90;71.30
33067;DHT22;19428;49.024;8.366;2023-04-24T15:41:12;12.70;75.40